CNR4 weather

Tobermory Airport
Tobermory, Ontario, Canada

Public forecast

Using degrees Celsius for public forecast. Weather courtesy of forecast.io.

Closest aviation weather report (METAR) to Tobermory Airport

Closest report is Wiarton Airport, 36.1 nm (66.9 km) SE. Retrieved 2020/01/28 12:00 UTC (48 minutes ago):

CYVV 281200Z 29005KT 260V330 15SM OVC025 M02/M04 A2993 RMK SC8 SLP148

Closest aviation forecast (TAF) to Tobermory Airport

Closest forecast is Wiarton Airport, 36.1 nm (66.9 km) SE. Retrieved 2020/01/28 14:00 UTC (0 seconds ago):

TAF CYVV 281341Z 2814/2824 31005KT P6SM SCT015 OVC025 TEMPO 2814/2819 21/2SM -SHSN OVC015 FM281900 32006KT P6SM SCT015 BKN025 TEMPO 2819/2822 4SM -SHSN OVC015 FM282200 34005KT P6SM BKN025 TEMPO 2822/2824 P6SM -SHSN BKN020 RMK NXT FCST BY 282000Z